CLMO2: North Canadian River

Data processed at Fri Jun 05 2020 23:15


All information presented herein is the property of the government of the United States of America and may be revised or deleted at any time without prior notice.
Dissemination of this information without the expressed written consent of the Public Affairs Office, Tulsa District U.S. Army Corps of Engineers is strictly prohibited.
These data are gathered electronically and, as presented, have not undergone any form of quality control. These data are not guaranteed to be valid or correct.
Go to home page.
Go to station list.
Go to home page.

Upstream stations:

Downstream station:
Previous Day
Next Day
Current Day
    
SHEF ID:       CLMO2     North Canadian River near Calume
STATION TYPE:  
Regulating: Stage =    12.00, Flow =     1500

                STAGE  STAGE(2)  RIV-FLOW  WTR-TEMP   DIS-OXY        PH   CONDUCT  BAT-LOAD
                   ft        ft       cfs         F      mg/l        su   umho/cm      volt
              Ccp-Rev   Ccp-Rev   Ccp-Rev   Ccp-Rev   Ccp-Rev   Ccp-Rev   Ccp-Rev   Ccp-Rev
(US/Central)
06/05 00:00      4.74      ----       155     81.77      6.31      8.33      1405     12.89
06/05 01:00      4.74      ----       155     80.76      6.35      8.32      1402     12.89
06/05 02:00      4.75      ----       156     80.04      6.29      8.31      1401     12.81
06/05 03:00      4.74      ----       155     79.77      6.14      8.31      1400     12.81
06/05 04:00      4.74      ----       155     79.23      5.95      8.30      1403     12.81
06/05 05:00      4.74      ----       155     78.80      6.14      8.29      1402     12.81
06/05 06:00      4.73      ----       154     78.33      6.12      8.29      1400     12.81
06/05 07:00      4.74      ----       155     77.81      5.95      8.28      1399     12.81
06/05 08:00      4.74      ----       155     77.43      6.57      8.28      1322     12.81
06/05 09:00      4.74      ----       155     77.52      6.94      8.30      1338     12.81
06/05 10:00      4.73      ----       154     78.26      7.52      8.33      1389     12.89
06/05 11:00      4.72      ----       153     79.48      8.10      8.37      1379     12.97
06/05 12:00      4.72      ----       153     81.10      8.97      8.40      1391     13.21
06/05 13:00      4.72      ----       153     82.89      9.35      8.43      1406     13.53
06/05 14:00      4.74      ----       155     84.70      9.94      8.46      1405     13.60
06/05 15:00      4.73      ----       154     86.27      9.99      8.47      1385     13.44
06/05 16:00      4.74      ----       155     87.46     10.17      8.47      1394     13.44
06/05 17:00      4.74      ----       155     88.18      9.86      8.45      1385     13.37
06/05 18:00      4.74      ----       155     88.20      9.34      8.41      1389     13.29
06/05 19:00      4.74      ----       155     87.78      8.91      8.38      1383     13.29
06/05 20:00      4.74      ----       155     87.03      8.22      8.36      1419     13.29
06/05 21:00      4.74      ----       155     86.22      7.55      8.35      1389     13.05
06/05 22:00      4.74      ----       155     85.44      6.66      8.33      1391     12.97
06/05 23:00      ----      ----      ----      ----      ----      ----      ----      ----